This is the latest recevied weather packets stored in our database for station/object HA6IFZ-10. If no packets are shown the sender has not sent any weather packets the latest 10 day(s).
| Time | Temp. | Humidity | Pressure | Rain* | Wind** | Luminosity | Snow |
|---|---|---|---|---|---|---|---|
| 1787607176 | 19.44° C | 50% | 1026.6 hPa | - | - | - | - |
| 1787606276 | 19.44° C | 49% | 1026.5 hPa | - | - | - | - |
| 1787605376 | 20° C | 47% | 1026.5 hPa | - | - | - | - |
| 1787604476 | 20° C | 48% | 1026.4 hPa | - | - | - | - |
| 1787603576 | 20° C | 48% | 1026.2 hPa | - | - | - | - |
| 1787602675 | 20° C | 47% | 1026.3 hPa | - | - | - | - |
| 1787601775 | 20.56° C | 46% | 1026.3 hPa | - | - | - | - |
| 1787600875 | 20.56° C | 46% | 1026.6 hPa | - | - | - | - |
| 1787599975 | 21.11° C | 45% | 1026.5 hPa | - | - | - | - |
| 1787599075 | 21.11° C | 43% | 1026.6 hPa | - | - | - | - |
| 1787598175 | 21.11° C | 43% | 1026.5 hPa | - | - | - | - |
| 1787597275 | 21.67° C | 43% | 1026.6 hPa | - | - | - | - |
| 1787596375 | 21.67° C | 43% | 1026.7 hPa | - | - | - | - |
| 1787595475 | 21.67° C | 42% | 1026.6 hPa | - | - | - | - |
| 1787594574 | 22.22° C | 40% | 1026.4 hPa | - | - | - | - |
| 1787593674 | 23.33° C | 38% | 1026.5 hPa | - | - | - | - |
| 1787592774 | 23.33° C | 37% | 1026.5 hPa | - | - | - | - |
| 1787591874 | 24.44° C | 34% | 1026.5 hPa | - | - | - | - |
| 1787590077 | 26.11° C | 30% | 1026.4 hPa | - | - | - | - |
| 1787589177 | 26.67° C | 29% | 1026.6 hPa | - | - | - | - |
| 1787588277 | 26.67° C | 29% | 1026.6 hPa | - | - | - | - |
| 1787587377 | 27.22° C | 28% | 1026.6 hPa | - | - | - | - |
| 1787586477 | 27.78° C | 27% | 1026.7 hPa | - | - | - | - |
| 1787585577 | 27.78° C | 28% | 1026.8 hPa | - | - | - | - |
| 1787584677 | 27.78° C | 27% | 1027 hPa | - | - | - | - |
* Rain since midnight (hover to see other rain measurements)
** Current wind speed in m/s (hover to see current wind gust speed)